createdAt,value
2019-05-22T00:00:39.032Z,100.00
2019-05-22T00:03:10.373Z,100.00
2019-05-22T00:05:41.140Z,100.00
2019-05-22T00:08:11.861Z,100.00
2019-05-22T00:10:44.226Z,100.00
2019-05-22T00:13:15.280Z,100.00
2019-05-22T00:15:48.353Z,100.00
2019-05-22T00:18:18.248Z,100.00
2019-05-22T00:20:49.105Z,100.00
2019-05-22T00:23:19.687Z,100.00
2019-05-22T00:25:49.509Z,100.00
2019-05-22T00:28:19.696Z,100.00
2019-05-22T00:30:50.132Z,100.00
2019-05-22T00:33:19.575Z,100.00
2019-05-22T00:35:50.362Z,100.00
2019-05-22T00:38:21.791Z,100.00
2019-05-22T00:40:57.261Z,100.00
2019-05-22T00:43:34.156Z,100.00
2019-05-22T00:46:09.773Z,100.00
2019-05-22T00:48:42.062Z,100.00
2019-05-22T00:51:14.988Z,100.00
2019-05-22T00:53:51.768Z,100.00
2019-05-22T00:56:29.797Z,100.00
2019-05-22T00:59:16.701Z,100.00
2019-05-22T01:01:47.862Z,100.00
2019-05-22T01:04:19.324Z,100.00
2019-05-22T01:06:48.825Z,100.00
2019-05-22T01:09:20.173Z,100.00
2019-05-22T01:11:51.602Z,100.00
2019-05-22T01:14:21.870Z,100.00
2019-05-22T01:16:52.549Z,100.00
2019-05-22T01:19:24.144Z,100.00
2019-05-22T01:21:55.584Z,100.00
2019-05-22T01:24:25.593Z,100.00
2019-05-22T01:26:55.103Z,100.00
2019-05-22T01:29:25.095Z,100.00
2019-05-22T01:32:07.426Z,100.00
2019-05-22T01:34:38.243Z,100.00
2019-05-22T01:37:11.949Z,100.00
2019-05-22T01:39:51.523Z,100.00
2019-05-22T01:42:25.261Z,100.00
2019-05-22T01:45:05.169Z,100.00
2019-05-22T01:47:38.080Z,100.00
2019-05-22T01:50:09.999Z,100.00
2019-05-22T01:52:40.821Z,100.00
2019-05-22T01:55:13.790Z,100.00
2019-05-22T01:57:44.554Z,100.00
2019-05-22T02:00:15.077Z,100.00
2019-05-22T02:02:44.121Z,100.00
2019-05-22T02:05:15.906Z,100.00
2019-05-22T02:07:45.509Z,100.00
2019-05-22T02:10:27.119Z,100.00
2019-05-22T02:13:03.038Z,100.00
2019-05-22T02:15:35.237Z,100.00
2019-05-22T02:18:07.752Z,100.00
2019-05-22T02:20:39.252Z,100.00
2019-05-22T02:23:08.859Z,100.00
2019-05-22T02:25:39.322Z,100.00
2019-05-22T02:28:11.515Z,100.00
2019-05-22T02:30:43.183Z,100.00
2019-05-22T02:33:14.253Z,100.00
2019-05-22T02:35:43.368Z,100.00
2019-05-22T02:38:13.082Z,100.00
2019-05-22T02:40:44.929Z,100.00
2019-05-22T02:43:16.312Z,100.00
2019-05-22T02:45:45.448Z,100.00
2019-05-22T02:48:15.970Z,100.00
2019-05-22T02:50:46.718Z,100.00
2019-05-22T02:53:17.611Z,100.00
2019-05-22T02:55:48.054Z,100.00
2019-05-22T02:58:20.333Z,100.00
2019-05-22T03:00:59.245Z,100.00
2019-05-22T03:03:30.224Z,100.00
2019-05-22T03:06:00.362Z,100.00
2019-05-22T03:08:49.365Z,100.00
2019-05-22T03:11:20.788Z,100.00
2019-05-22T03:14:06.610Z,100.00
2019-05-22T03:16:51.551Z,100.00
2019-05-22T03:19:33.858Z,100.00
2019-05-22T03:22:07.784Z,100.00
2019-05-22T03:24:37.961Z,100.00
2019-05-22T03:27:07.195Z,100.00
2019-05-22T03:29:42.476Z,100.00
2019-05-22T03:32:12.608Z,100.00
2019-05-22T03:34:41.842Z,100.00
2019-05-22T03:37:11.615Z,100.00
2019-05-22T03:39:41.368Z,100.00
2019-05-22T03:42:12.559Z,100.00
2019-05-22T03:44:41.700Z,100.00
2019-05-22T03:47:13.434Z,100.00
2019-05-22T03:49:43.620Z,100.00
2019-05-22T03:52:13.892Z,100.00
2019-05-22T03:54:43.830Z,100.00
2019-05-22T03:57:14.589Z,100.00
2019-05-22T03:59:45.530Z,100.00
2019-05-22T04:02:15.614Z,100.00
2019-05-22T04:04:47.010Z,100.00
2019-05-22T04:07:20.518Z,100.00
2019-05-22T04:09:52.833Z,100.00
2019-05-22T04:12:22.410Z,100.00
2019-05-22T04:14:52.849Z,100.00
2019-05-22T04:17:24.050Z,100.00
2019-05-22T04:19:54.675Z,100.00
2019-05-22T04:22:23.939Z,100.00
2019-05-22T04:24:53.593Z,100.00
2019-05-22T04:27:23.038Z,100.00
2019-05-22T04:29:52.568Z,100.00
2019-05-22T04:32:23.492Z,100.00
2019-05-22T04:34:52.940Z,100.00
2019-05-22T04:37:22.367Z,100.00
2019-05-22T04:39:52.984Z,100.00
2019-05-22T04:42:23.724Z,100.00
2019-05-22T04:45:15.894Z,100.00
2019-05-22T04:47:57.715Z,100.00
2019-05-22T04:50:29.337Z,100.00
2019-05-22T04:53:00.174Z,100.00
2019-05-22T04:55:31.234Z,100.00
2019-05-22T04:58:06.748Z,100.00
2019-05-22T05:00:37.166Z,100.00
2019-05-22T05:03:06.818Z,100.00
2019-05-22T05:05:50.562Z,100.00
2019-05-22T05:08:19.641Z,100.00
2019-05-22T05:10:50.681Z,100.00
2019-05-22T05:13:20.193Z,100.00
2019-05-22T05:15:49.367Z,100.00
2019-05-22T05:18:18.806Z,100.00
2019-05-22T05:20:48.515Z,100.00
2019-05-22T05:23:17.579Z,100.00
2019-05-22T05:25:47.283Z,100.00
2019-05-22T05:28:16.855Z,100.00
2019-05-22T05:30:45.903Z,100.00
2019-05-22T05:33:15.614Z,100.00
2019-05-22T05:35:45.855Z,100.00
2019-05-22T05:38:15.932Z,100.00
2019-05-22T05:40:46.285Z,100.00
2019-05-22T05:43:16.904Z,100.00
2019-05-22T05:45:48.956Z,100.00
2019-05-22T05:48:20.793Z,100.00
2019-05-22T05:51:09.866Z,100.00
2019-05-22T05:54:10.484Z,100.00
2019-05-22T05:56:41.939Z,100.00
2019-05-22T05:59:12.574Z,100.00
2019-05-22T06:01:44.395Z,100.00
2019-05-22T06:04:16.238Z,100.00
2019-05-22T06:07:00.345Z,100.00
2019-05-22T06:09:29.825Z,100.00
2019-05-22T06:12:05.365Z,100.00
2019-05-22T06:14:35.593Z,100.00
2019-05-22T06:17:18.312Z,100.00
2019-05-22T06:19:51.030Z,100.00
2019-05-22T06:22:20.188Z,100.00
2019-05-22T06:24:52.309Z,100.00
2019-05-22T06:27:25.783Z,100.00
2019-05-22T06:30:11.362Z,100.00
2019-05-22T06:33:01.709Z,100.00
2019-05-22T06:35:35.470Z,100.00
2019-05-22T06:38:33.382Z,100.00
2019-05-22T06:41:02.625Z,100.00
2019-05-22T06:43:37.502Z,100.00
2019-05-22T06:46:07.664Z,100.00
2019-05-22T06:48:37.673Z,100.00
2019-05-22T06:51:19.086Z,100.00
2019-05-22T06:53:37.892Z,100.00
2019-05-22T06:56:07.219Z,100.00
2019-05-22T06:58:36.402Z,100.00
2019-05-22T07:01:06.222Z,100.00
2019-05-22T07:03:35.765Z,100.00
2019-05-22T07:06:04.919Z,100.00
2019-05-22T07:08:34.243Z,100.00
2019-05-22T07:11:04.241Z,100.00
2019-05-22T07:13:34.332Z,100.00
2019-05-22T07:16:04.874Z,100.00
2019-05-22T07:18:34.911Z,100.00
2019-05-22T07:21:05.337Z,100.00
2019-05-22T07:23:34.816Z,100.00
2019-05-22T07:26:04.305Z,100.00
2019-05-22T07:28:33.541Z,100.00
2019-05-22T07:31:04.595Z,100.00
2019-05-22T07:33:35.295Z,100.00
2019-05-22T07:36:10.066Z,100.00
2019-05-22T07:38:36.685Z,100.00
2019-05-22T07:41:08.106Z,100.00
2019-05-22T07:43:41.355Z,100.00
2019-05-22T07:46:09.123Z,100.00
2019-05-22T07:48:38.414Z,100.00
2019-05-22T07:51:08.961Z,100.00
2019-05-22T07:53:38.892Z,100.00
2019-05-22T07:56:11.860Z,100.00
2019-05-22T07:58:43.290Z,100.00
2019-05-22T08:01:13.978Z,100.00
2019-05-22T08:03:46.349Z,100.00
2019-05-22T08:06:16.254Z,100.00
2019-05-22T08:08:46.815Z,100.00
2019-05-22T08:11:15.929Z,100.00
2019-05-22T08:13:46.198Z,100.00
2019-05-22T08:16:16.994Z,100.00
2019-05-22T08:18:46.644Z,100.00
2019-05-22T08:21:15.966Z,100.00
2019-05-22T08:23:45.420Z,100.00
2019-05-22T08:26:16.850Z,100.00
2019-05-22T08:28:47.521Z,100.00
2019-05-22T08:31:20.548Z,100.00
2019-05-22T08:33:50.019Z,100.00
2019-05-22T08:36:19.053Z,100.00
2019-05-22T08:38:48.852Z,100.00
2019-05-22T08:41:20.963Z,100.00
2019-05-22T08:44:13.641Z,100.00
2019-05-22T08:46:23.239Z,100.00
2019-05-22T08:48:53.136Z,100.00
2019-05-22T08:51:23.175Z,100.00
2019-05-22T08:53:53.239Z,100.00
2019-05-22T08:56:23.890Z,100.00
2019-05-22T08:58:54.320Z,100.00
2019-05-22T09:01:24.209Z,100.00
2019-05-22T09:03:54.719Z,100.00
2019-05-22T09:06:24.605Z,100.00
2019-05-22T09:08:53.925Z,100.00
2019-05-22T09:11:23.041Z,100.00
2019-05-22T09:13:52.774Z,100.00
2019-05-22T09:16:22.447Z,100.00
2019-05-22T09:18:52.638Z,100.00
2019-05-22T09:21:22.503Z,100.00
2019-05-22T09:23:53.213Z,99.02
2019-05-22T09:26:23.351Z,100.00
2019-05-22T09:28:52.451Z,97.86
2019-05-22T09:31:21.889Z,100.00
2019-05-22T09:33:51.218Z,100.00
2019-05-22T09:36:21.105Z,92.85
2019-05-22T09:38:52.518Z,95.84
2019-05-22T09:41:22.059Z,94.82
2019-05-22T09:43:51.127Z,89.03
2019-05-22T09:46:20.611Z,92.64
2019-05-22T09:48:50.537Z,93.83
2019-05-22T09:51:20.266Z,93.49
2019-05-22T09:53:51.378Z,96.42
2019-05-22T09:56:21.360Z,97.67
2019-05-22T09:58:51.292Z,96.29
2019-05-22T10:01:20.625Z,98.20
2019-05-22T10:03:50.488Z,98.72
2019-05-22T10:06:21.741Z,97.36
2019-05-22T10:08:51.632Z,96.67
2019-05-22T10:11:21.600Z,98.13
2019-05-22T10:13:51.445Z,97.34
2019-05-22T10:16:20.512Z,93.09
2019-05-22T10:18:52.987Z,93.34
2019-05-22T10:21:22.916Z,94.59
2019-05-22T10:23:52.854Z,91.23
2019-05-22T10:26:23.091Z,86.45
2019-05-22T10:28:53.306Z,88.62
2019-05-22T10:31:22.947Z,92.30
2019-05-22T10:33:52.435Z,89.36
2019-05-22T10:36:22.499Z,92.94
2019-05-22T10:38:51.814Z,91.11
2019-05-22T10:41:21.354Z,91.08
2019-05-22T10:43:50.389Z,86.97
2019-05-22T10:46:20.331Z,87.64
2019-05-22T10:48:50.088Z,83.89
2019-05-22T10:51:19.560Z,82.79
2019-05-22T10:53:49.503Z,85.01
2019-05-22T10:56:18.928Z,87.17
2019-05-22T10:58:48.273Z,84.81
2019-05-22T11:01:18.310Z,89.05
2019-05-22T11:03:47.894Z,78.72
2019-05-22T11:06:18.348Z,83.37
2019-05-22T11:08:47.928Z,84.65
2019-05-22T11:11:17.940Z,81.24
2019-05-22T11:14:00.684Z,81.94
2019-05-22T11:16:19.201Z,83.86
2019-05-22T11:18:48.261Z,87.07
2019-05-22T11:21:17.985Z,86.60
2019-05-22T11:23:52.443Z,85.26
2019-05-22T11:26:18.657Z,83.78
2019-05-22T11:28:49.539Z,88.37
2019-05-22T11:31:18.610Z,84.40
2019-05-22T11:33:48.153Z,79.39
2019-05-22T11:36:18.230Z,74.92
2019-05-22T11:38:47.596Z,79.28
2019-05-22T11:41:17.757Z,76.42
2019-05-22T11:43:47.671Z,77.54
2019-05-22T11:46:17.561Z,80.13
2019-05-22T11:48:46.978Z,78.14
2019-05-22T11:51:16.109Z,76.67
2019-05-22T11:53:45.263Z,77.82
2019-05-22T11:56:14.449Z,75.81
2019-05-22T11:58:43.861Z,74.90
2019-05-22T12:01:13.842Z,80.03
2019-05-22T12:03:43.422Z,78.78
2019-05-22T12:06:13.633Z,77.65
2019-05-22T12:08:43.221Z,76.73
2019-05-22T12:11:15.815Z,76.43
2019-05-22T12:13:45.513Z,80.77
2019-05-22T12:16:15.227Z,78.58
2019-05-22T12:18:44.905Z,78.28
2019-05-22T12:21:14.133Z,75.57
2019-05-22T12:23:44.449Z,81.49
2019-05-22T12:26:13.610Z,76.62
2019-05-22T12:28:42.951Z,74.85
2019-05-22T12:31:12.777Z,75.04
2019-05-22T12:33:41.984Z,80.58
2019-05-22T12:36:14.026Z,75.58
2019-05-22T12:38:43.491Z,76.75
2019-05-22T12:41:15.025Z,73.67
2019-05-22T12:43:45.141Z,76.01
2019-05-22T12:46:14.890Z,75.47
2019-05-22T12:48:45.653Z,73.42
2019-05-22T12:51:17.414Z,73.71
2019-05-22T12:53:46.674Z,75.06
2019-05-22T12:56:17.566Z,72.45
2019-05-22T12:58:47.374Z,77.40
2019-05-22T13:01:17.814Z,78.71
2019-05-22T13:03:48.462Z,79.47
2019-05-22T13:06:17.626Z,73.67
2019-05-22T13:08:47.102Z,68.85
2019-05-22T13:11:16.725Z,72.06
2019-05-22T13:13:46.995Z,75.42
2019-05-22T13:16:17.114Z,72.67
2019-05-22T13:18:47.431Z,75.48
2019-05-22T13:21:20.792Z,75.86
2019-05-22T13:23:51.609Z,72.49
2019-05-22T13:26:23.452Z,66.33
2019-05-22T13:28:55.009Z,70.73
2019-05-22T13:31:24.705Z,71.56
2019-05-22T13:33:55.550Z,74.70
2019-05-22T13:36:25.224Z,70.66
2019-05-22T13:38:54.953Z,69.62
2019-05-22T13:41:24.578Z,67.26
2019-05-22T13:43:55.173Z,68.08
2019-05-22T13:46:24.270Z,69.65
2019-05-22T13:48:53.473Z,69.77
2019-05-22T13:51:23.649Z,65.11
2019-05-22T13:53:53.859Z,63.91
2019-05-22T13:56:25.559Z,65.64
2019-05-22T13:58:56.320Z,66.02
2019-05-22T14:01:26.542Z,65.03
2019-05-22T14:03:56.545Z,64.93
2019-05-22T14:06:27.599Z,66.00
2019-05-22T14:08:57.978Z,69.86
2019-05-22T14:11:29.129Z,68.81
2019-05-22T14:13:58.704Z,64.79
2019-05-22T14:16:28.839Z,66.90
2019-05-22T14:18:58.202Z,67.78
2019-05-22T14:21:27.536Z,67.71
2019-05-22T14:23:56.737Z,68.90
2019-05-22T14:26:29.741Z,66.57
2019-05-22T14:28:57.183Z,63.25
2019-05-22T14:31:26.401Z,67.24
2019-05-22T14:33:55.519Z,66.16
2019-05-22T14:36:26.480Z,65.92
2019-05-22T14:38:57.281Z,66.60
2019-05-22T14:41:26.793Z,67.32
2019-05-22T14:43:56.687Z,69.89
2019-05-22T14:46:26.258Z,68.98
2019-05-22T14:48:55.728Z,67.83
2019-05-22T14:51:26.541Z,68.36
2019-05-22T14:53:58.730Z,67.59
2019-05-22T14:56:28.261Z,68.99
2019-05-22T14:58:58.205Z,67.20
2019-05-22T15:01:29.080Z,67.03
2019-05-22T15:03:58.815Z,69.03
2019-05-22T15:06:28.429Z,64.71
2019-05-22T15:08:58.233Z,64.38
2019-05-22T15:11:28.721Z,65.22
2019-05-22T15:13:57.939Z,67.73
2019-05-22T15:16:28.156Z,66.62
2019-05-22T15:18:57.667Z,65.87
2019-05-22T15:21:27.689Z,66.67
2019-05-22T15:23:58.270Z,66.93
2019-05-22T15:26:28.454Z,66.02
2019-05-22T15:28:58.146Z,67.80
2019-05-22T15:31:27.479Z,65.79
2019-05-22T15:33:57.025Z,67.85
2019-05-22T15:36:27.260Z,65.15
2019-05-22T15:38:57.726Z,64.07
2019-05-22T15:41:28.884Z,65.92
2019-05-22T15:43:59.348Z,66.53
2019-05-22T15:46:31.387Z,66.88
2019-05-22T15:49:02.056Z,69.82
2019-05-22T15:51:33.738Z,69.79
2019-05-22T15:54:07.040Z,67.06
2019-05-22T15:56:39.526Z,65.34
2019-05-22T15:59:11.583Z,65.34
2019-05-22T16:01:42.764Z,64.92
2019-05-22T16:04:14.930Z,65.55
2019-05-22T16:06:44.193Z,65.19
2019-05-22T16:09:16.109Z,63.78
2019-05-22T16:11:47.751Z,64.80
2019-05-22T16:14:17.980Z,63.73
2019-05-22T16:16:49.419Z,64.90
2019-05-22T16:19:19.963Z,67.10
2019-05-22T16:21:54.177Z,67.75
2019-05-22T16:24:23.844Z,70.37
2019-05-22T16:26:53.314Z,68.95
2019-05-22T16:29:24.622Z,66.87
2019-05-22T16:31:56.270Z,66.79
2019-05-22T16:34:28.516Z,67.57
2019-05-22T16:37:03.230Z,66.54
2019-05-22T16:39:30.243Z,66.18
2019-05-22T16:41:59.917Z,67.39
2019-05-22T16:44:29.451Z,67.29
2019-05-22T16:46:59.204Z,67.09
2019-05-22T16:49:28.636Z,67.41
2019-05-22T16:51:59.773Z,65.49
2019-05-22T16:54:31.848Z,66.29
2019-05-22T16:57:02.276Z,68.76
2019-05-22T16:59:36.950Z,68.39
2019-05-22T17:02:06.881Z,68.83
2019-05-22T17:04:36.695Z,67.90
2019-05-22T17:07:06.628Z,69.65
2019-05-22T17:09:37.419Z,69.03
2019-05-22T17:12:08.650Z,69.15
2019-05-22T17:14:38.183Z,67.51
2019-05-22T17:17:09.926Z,67.38
2019-05-22T17:19:39.658Z,67.24
2019-05-22T17:22:09.499Z,68.29
2019-05-22T17:24:39.629Z,67.19
2019-05-22T17:27:11.728Z,70.09
2019-05-22T17:29:41.512Z,69.12
2019-05-22T17:32:12.523Z,68.28
2019-05-22T17:34:42.277Z,69.21
2019-05-22T17:37:14.901Z,71.24
2019-05-22T17:39:46.704Z,71.13
2019-05-22T17:42:18.287Z,71.56
2019-05-22T17:44:49.994Z,72.23
2019-05-22T17:47:21.848Z,73.55
2019-05-22T17:49:52.102Z,73.60
2019-05-22T17:52:23.277Z,72.89
2019-05-22T17:54:53.612Z,73.85
2019-05-22T17:57:24.086Z,73.38
2019-05-22T17:59:54.508Z,74.08
2019-05-22T18:02:25.286Z,75.58
2019-05-22T18:04:54.450Z,75.21
2019-05-22T18:07:24.053Z,75.70
2019-05-22T18:09:53.133Z,76.79
2019-05-22T18:12:22.565Z,78.73
2019-05-22T18:14:52.219Z,78.90
2019-05-22T18:17:21.403Z,79.59
2019-05-22T18:19:50.505Z,80.46
2019-05-22T18:22:20.315Z,81.01
2019-05-22T18:24:50.132Z,82.04
2019-05-22T18:27:19.522Z,83.52
2019-05-22T18:29:49.314Z,84.62
2019-05-22T18:32:19.211Z,86.46
2019-05-22T18:34:48.257Z,87.40
2019-05-22T18:37:17.444Z,88.71
2019-05-22T18:39:46.483Z,90.42
2019-05-22T18:42:16.604Z,90.74
2019-05-22T18:44:45.657Z,90.51
2019-05-22T18:47:14.935Z,91.30
2019-05-22T18:49:45.387Z,92.58
2019-05-22T18:52:14.473Z,95.32
2019-05-22T18:54:43.796Z,95.22
2019-05-22T18:57:12.940Z,97.58
2019-05-22T18:59:42.383Z,98.34
2019-05-22T19:02:11.617Z,100.00
2019-05-22T19:04:41.522Z,100.00
2019-05-22T19:07:11.036Z,100.00
2019-05-22T19:09:40.895Z,99.59
2019-05-22T19:12:10.098Z,100.00
2019-05-22T19:14:39.397Z,100.00
2019-05-22T19:17:08.707Z,100.00
2019-05-22T19:19:38.509Z,100.00
2019-05-22T19:22:08.117Z,100.00
2019-05-22T19:24:37.302Z,100.00
2019-05-22T19:27:06.818Z,100.00
2019-05-22T19:29:37.983Z,100.00
2019-05-22T19:32:07.334Z,100.00
2019-05-22T19:34:36.840Z,100.00
2019-05-22T19:37:06.137Z,100.00
2019-05-22T19:39:36.043Z,100.00
2019-05-22T19:42:06.231Z,100.00
2019-05-22T19:44:35.407Z,100.00
2019-05-22T19:47:05.400Z,100.00
2019-05-22T19:49:35.313Z,100.00
2019-05-22T19:52:06.340Z,100.00
2019-05-22T19:54:36.713Z,100.00
2019-05-22T19:57:06.577Z,100.00
2019-05-22T19:59:36.395Z,100.00
2019-05-22T20:02:05.642Z,100.00
2019-05-22T20:04:36.156Z,100.00
2019-05-22T20:07:07.824Z,100.00
2019-05-22T20:09:39.071Z,100.00
2019-05-22T20:12:08.683Z,100.00
2019-05-22T20:14:38.398Z,100.00
2019-05-22T20:17:08.004Z,100.00
2019-05-22T20:19:37.177Z,100.00
2019-05-22T20:22:06.675Z,100.00
2019-05-22T20:24:36.305Z,100.00
2019-05-22T20:27:09.609Z,100.00
2019-05-22T20:29:37.039Z,100.00
2019-05-22T20:32:07.858Z,100.00
2019-05-22T20:34:37.453Z,100.00
2019-05-22T20:37:06.863Z,100.00
2019-05-22T20:39:37.281Z,100.00
2019-05-22T20:42:07.757Z,100.00
2019-05-22T20:44:38.113Z,100.00
2019-05-22T20:47:07.777Z,100.00
2019-05-22T20:49:38.805Z,100.00
2019-05-22T20:52:10.983Z,100.00
2019-05-22T20:54:40.994Z,100.00
2019-05-22T20:57:11.970Z,100.00
2019-05-22T20:59:42.420Z,100.00
2019-05-22T21:02:12.415Z,100.00
2019-05-22T21:04:43.796Z,100.00
2019-05-22T21:07:13.914Z,100.00
2019-05-22T21:09:44.407Z,100.00
2019-05-22T21:12:14.994Z,100.00
2019-05-22T21:14:44.159Z,100.00
2019-05-22T21:17:15.742Z,100.00
2019-05-22T21:19:47.141Z,100.00
2019-05-22T21:22:18.603Z,100.00
2019-05-22T21:24:49.759Z,100.00
2019-05-22T21:27:20.125Z,100.00
2019-05-22T21:29:49.483Z,100.00
2019-05-22T21:32:19.838Z,100.00
2019-05-22T21:34:50.119Z,100.00
2019-05-22T21:37:20.292Z,100.00
2019-05-22T21:39:50.719Z,100.00
2019-05-22T21:42:21.123Z,100.00
2019-05-22T21:44:50.527Z,100.00
2019-05-22T21:47:21.078Z,100.00
2019-05-22T21:49:52.447Z,100.00
2019-05-22T21:52:22.557Z,100.00
2019-05-22T21:54:52.813Z,100.00
2019-05-22T21:57:21.944Z,100.00
2019-05-22T21:59:52.074Z,100.00
2019-05-22T22:02:25.856Z,100.00
2019-05-22T22:04:55.185Z,100.00
2019-05-22T22:07:24.408Z,100.00
2019-05-22T22:09:54.625Z,100.00
2019-05-22T22:12:23.834Z,100.00
2019-05-22T22:14:53.248Z,100.00
2019-05-22T22:17:24.047Z,100.00
2019-05-22T22:19:54.659Z,100.00
2019-05-22T22:22:27.114Z,100.00
2019-05-22T22:24:56.728Z,100.00
2019-05-22T22:27:27.289Z,100.00
2019-05-22T22:29:57.389Z,100.00
2019-05-22T22:32:28.615Z,100.00
2019-05-22T22:34:59.759Z,100.00
2019-05-22T22:37:31.282Z,100.00
2019-05-22T22:40:02.079Z,100.00
2019-05-22T22:42:36.778Z,100.00
2019-05-22T22:45:07.614Z,100.00
2019-05-22T22:47:38.736Z,100.00
2019-05-22T22:50:09.702Z,100.00
2019-05-22T22:52:40.633Z,100.00
2019-05-22T22:55:13.229Z,100.00
2019-05-22T22:57:42.730Z,100.00
2019-05-22T23:00:15.482Z,100.00
2019-05-22T23:02:46.532Z,100.00
2019-05-22T23:05:17.105Z,100.00
2019-05-22T23:07:48.948Z,100.00
2019-05-22T23:10:20.259Z,100.00
2019-05-22T23:12:51.211Z,100.00
2019-05-22T23:15:22.305Z,100.00
2019-05-22T23:17:53.267Z,100.00
2019-05-22T23:20:21.322Z,100.00
2019-05-22T23:22:49.487Z,100.00
2019-05-22T23:25:20.325Z,100.00
2019-05-22T23:27:51.045Z,100.00
2019-05-22T23:30:21.401Z,100.00
2019-05-22T23:32:52.384Z,100.00
2019-05-22T23:35:22.834Z,100.00
2019-05-22T23:37:51.924Z,100.00
2019-05-22T23:40:27.665Z,100.00
2019-05-22T23:42:58.949Z,100.00
2019-05-22T23:45:28.338Z,100.00
2019-05-22T23:48:03.997Z,100.00
2019-05-22T23:50:36.782Z,100.00
2019-05-22T23:53:07.824Z,100.00
2019-05-22T23:55:38.272Z,100.00
2019-05-22T23:58:09.834Z,100.00
